createdAt,value
2018-04-23T00:00:38.909Z,1007.51
2018-04-23T00:01:38.852Z,1007.51
2018-04-23T00:02:38.794Z,1007.45
2018-04-23T00:03:38.748Z,1007.44
2018-04-23T00:04:38.678Z,1007.43
2018-04-23T00:05:38.620Z,1007.41
2018-04-23T00:06:38.559Z,1007.38
2018-04-23T00:07:38.495Z,1007.32
2018-04-23T00:08:38.438Z,1007.30
2018-04-23T00:09:38.375Z,1007.29
2018-04-23T00:10:38.320Z,1007.23
2018-04-23T00:11:38.253Z,1007.21
2018-04-23T00:12:38.202Z,1007.21
2018-04-23T00:13:38.136Z,1007.17
2018-04-23T00:14:38.080Z,1007.17
2018-04-23T00:15:38.029Z,1007.17
2018-04-23T00:16:37.968Z,1007.11
2018-04-23T00:17:37.900Z,1007.09
2018-04-23T00:18:37.843Z,1007.08
2018-04-23T00:19:37.782Z,1007.07
2018-04-23T00:20:37.722Z,1007.05
2018-04-23T00:21:37.669Z,1007.01
2018-04-23T00:22:37.610Z,1007.01
2018-04-23T00:23:37.558Z,1006.98
2018-04-23T00:24:37.483Z,1006.99
2018-04-23T00:25:37.424Z,1006.93
2018-04-23T00:26:37.370Z,1006.93
2018-04-23T00:27:37.309Z,1006.93
2018-04-23T00:28:37.248Z,1006.89
2018-04-23T00:29:37.196Z,1006.92
2018-04-23T00:30:37.128Z,1006.93
2018-04-23T00:31:37.069Z,1006.87
2018-04-23T00:32:37.007Z,1006.85
2018-04-23T00:33:36.948Z,1006.82
2018-04-23T00:34:36.893Z,1006.81
2018-04-23T00:35:36.835Z,1006.79
2018-04-23T00:36:36.768Z,1006.76
2018-04-23T00:37:36.715Z,1006.83
2018-04-23T00:38:36.658Z,1006.76
2018-04-23T00:39:36.599Z,1006.74
2018-04-23T00:40:36.537Z,1006.77
2018-04-23T00:41:36.479Z,1006.76
2018-04-23T00:42:36.417Z,1006.74
2018-04-23T00:43:36.359Z,1006.76
2018-04-23T00:44:36.296Z,1006.71
2018-04-23T00:45:36.236Z,1006.68
2018-04-23T00:46:36.182Z,1006.68
2018-04-23T00:47:36.123Z,1006.67
2018-04-23T00:48:36.060Z,1006.69
2018-04-23T00:49:36.010Z,1006.68
2018-04-23T00:50:35.941Z,1006.66
2018-04-23T00:51:35.882Z,1006.74
2018-04-23T00:52:35.825Z,1006.81
2018-04-23T00:53:35.769Z,1006.80
2018-04-23T00:54:35.702Z,1006.79
2018-04-23T00:55:35.643Z,1006.87
2018-04-23T00:56:35.592Z,1006.84
2018-04-23T00:57:35.526Z,1006.86
2018-04-23T00:58:35.477Z,1006.85
2018-04-23T00:59:35.413Z,1006.76
2018-04-23T01:00:35.357Z,1006.74
2018-04-23T01:01:35.292Z,1006.71
2018-04-23T01:02:35.226Z,1006.74
2018-04-23T01:03:35.173Z,1006.74
2018-04-23T01:04:35.114Z,1006.67
2018-04-23T01:05:35.048Z,1006.67
2018-04-23T01:06:35.000Z,1006.69
2018-04-23T01:07:34.954Z,1006.67
2018-04-23T01:08:34.885Z,1006.63
2018-04-23T01:09:34.815Z,1006.60
2018-04-23T01:10:34.756Z,1006.60
2018-04-23T01:11:34.700Z,1006.63
2018-04-23T01:12:34.646Z,1006.66
2018-04-23T01:13:34.582Z,1006.65
2018-04-23T01:14:34.522Z,1006.64
2018-04-23T01:15:34.466Z,1006.65
2018-04-23T01:16:34.394Z,1006.63
2018-04-23T01:17:34.335Z,1006.65
2018-04-23T01:18:34.280Z,1006.64
2018-04-23T01:19:34.223Z,1006.66
2018-04-23T01:20:34.168Z,1006.63
2018-04-23T01:21:34.103Z,1006.61
2018-04-23T01:22:34.045Z,1006.68
2018-04-23T01:23:33.985Z,1006.65
2018-04-23T01:24:33.925Z,1006.64
2018-04-23T01:25:33.869Z,1006.63
2018-04-23T01:26:33.798Z,1006.62
2018-04-23T01:27:33.744Z,1006.60
2018-04-23T01:28:33.687Z,1006.66
2018-04-23T01:29:33.625Z,1006.65
2018-04-23T01:30:33.565Z,1006.65
2018-04-23T01:31:33.513Z,1006.64
2018-04-23T01:32:33.447Z,1006.70
2018-04-23T01:33:33.388Z,1006.66
2018-04-23T01:34:33.324Z,1006.69
2018-04-23T01:35:33.267Z,1006.70
2018-04-23T01:36:33.205Z,1006.72
2018-04-23T01:37:33.148Z,1006.71
2018-04-23T01:38:33.089Z,1006.73
2018-04-23T01:39:33.030Z,1006.77
2018-04-23T01:40:32.968Z,1006.76
2018-04-23T01:41:32.908Z,1006.73
2018-04-23T01:42:32.854Z,1006.70
2018-04-23T01:43:32.792Z,1006.66
2018-04-23T01:44:32.733Z,1006.72
2018-04-23T01:45:32.668Z,1006.70
2018-04-23T01:46:32.615Z,1006.76
2018-04-23T01:47:32.550Z,1006.73
2018-04-23T01:48:32.491Z,1006.69
2018-04-23T01:49:32.431Z,1006.67
2018-04-23T01:50:32.372Z,1006.70
2018-04-23T01:51:32.314Z,1006.69
2018-04-23T01:52:32.252Z,1006.67
2018-04-23T01:53:32.193Z,1006.67
2018-04-23T01:54:32.132Z,1006.72
2018-04-23T01:55:32.075Z,1006.68
2018-04-23T01:56:32.017Z,1006.70
2018-04-23T01:57:31.951Z,1006.75
2018-04-23T01:58:31.893Z,1006.74
2018-04-23T01:59:31.830Z,1006.73
2018-04-23T02:00:31.770Z,1006.72
2018-04-23T02:01:31.722Z,1006.68
2018-04-23T02:02:31.654Z,1006.68
2018-04-23T02:03:31.597Z,1006.68
2018-04-23T02:04:31.569Z,1006.67
2018-04-23T02:05:31.487Z,1006.73
2018-04-23T02:06:31.414Z,1006.74
2018-04-23T02:07:31.352Z,1006.76
2018-04-23T02:08:31.293Z,1006.73
2018-04-23T02:09:31.235Z,1006.73
2018-04-23T02:10:31.176Z,1006.78
2018-04-23T02:11:31.116Z,1006.78
2018-04-23T02:12:31.053Z,1006.74
2018-04-23T02:13:30.992Z,1006.71
2018-04-23T02:14:30.936Z,1006.75
2018-04-23T02:15:30.875Z,1006.75
2018-04-23T02:16:30.816Z,1006.76
2018-04-23T02:17:30.757Z,1006.77
2018-04-23T02:18:30.695Z,1006.85
2018-04-23T02:19:30.641Z,1006.76
2018-04-23T02:20:30.572Z,1006.79
2018-04-23T02:21:30.514Z,1006.87
2018-04-23T02:22:30.459Z,1006.85
2018-04-23T02:23:30.403Z,1006.85
2018-04-23T02:24:30.336Z,1006.87
2018-04-23T02:25:30.278Z,1006.90
2018-04-23T02:26:30.213Z,1006.87
2018-04-23T02:27:30.157Z,1006.87
2018-04-23T02:28:30.092Z,1006.87
2018-04-23T02:29:30.036Z,1006.90
2018-04-23T02:30:29.976Z,1006.92
2018-04-23T02:31:29.915Z,1006.91
2018-04-23T02:32:29.856Z,1006.87
2018-04-23T02:33:29.790Z,1006.91
2018-04-23T02:34:29.742Z,1006.90
2018-04-23T02:35:29.675Z,1006.91
2018-04-23T02:36:29.613Z,1006.89
2018-04-23T02:37:29.557Z,1006.88
2018-04-23T02:38:29.495Z,1006.92
2018-04-23T02:39:29.435Z,1006.88
2018-04-23T02:40:29.369Z,1006.87
2018-04-23T02:41:29.315Z,1006.89
2018-04-23T02:42:29.259Z,1006.94
2018-04-23T02:43:29.195Z,1006.95
2018-04-23T02:44:29.141Z,1006.98
2018-04-23T02:45:29.079Z,1006.97
2018-04-23T02:46:29.014Z,1007.04
2018-04-23T02:47:28.962Z,1007.04
2018-04-23T02:48:28.898Z,1007.06
2018-04-23T02:49:28.833Z,1007.02
2018-04-23T02:50:28.772Z,1007.01
2018-04-23T02:51:28.711Z,1006.95
2018-04-23T02:52:28.652Z,1006.95
2018-04-23T02:53:28.589Z,1006.96
2018-04-23T02:54:28.528Z,1006.99
2018-04-23T02:55:28.499Z,1006.96
2018-04-23T02:56:28.413Z,1006.96
2018-04-23T02:57:28.349Z,1007.01
2018-04-23T02:58:28.291Z,1007.05
2018-04-23T02:59:28.229Z,1006.99
2018-04-23T03:00:28.177Z,1006.98
2018-04-23T03:01:28.121Z,1007.00
2018-04-23T03:02:28.047Z,1007.09
2018-04-23T03:03:27.997Z,1006.99
2018-04-23T03:04:27.924Z,1007.01
2018-04-23T03:05:27.866Z,1007.01
2018-04-23T03:06:27.806Z,1007.00
2018-04-23T03:07:27.748Z,1007.01
2018-04-23T03:08:27.687Z,1006.92
2018-04-23T03:09:27.627Z,1006.97
2018-04-23T03:10:27.565Z,1006.99
2018-04-23T03:11:27.500Z,1006.94
2018-04-23T03:12:27.443Z,1006.93
2018-04-23T03:13:27.381Z,1006.92
2018-04-23T03:14:27.324Z,1006.94
2018-04-23T03:15:27.266Z,1006.95
2018-04-23T03:16:27.203Z,1006.97
2018-04-23T03:17:27.142Z,1006.99
2018-04-23T03:18:27.084Z,1006.95
2018-04-23T03:19:27.028Z,1007.02
2018-04-23T03:20:26.960Z,1007.01
2018-04-23T03:21:26.902Z,1006.95
2018-04-23T03:22:26.843Z,1007.00
2018-04-23T03:23:26.776Z,1006.95
2018-04-23T03:24:26.716Z,1006.98
2018-04-23T03:25:26.655Z,1006.97
2018-04-23T03:26:26.605Z,1006.97
2018-04-23T03:27:26.539Z,1006.94
2018-04-23T03:28:26.471Z,1006.95
2018-04-23T03:29:26.412Z,1007.00
2018-04-23T03:30:26.360Z,1007.00
2018-04-23T03:31:26.293Z,1007.01
2018-04-23T03:32:26.242Z,1007.00
2018-04-23T03:33:26.178Z,1006.98
2018-04-23T03:34:26.109Z,1007.01
2018-04-23T03:35:26.064Z,1006.99
2018-04-23T03:36:25.990Z,1007.04
2018-04-23T03:37:25.927Z,1007.03
2018-04-23T03:38:25.875Z,1007.02
2018-04-23T03:39:25.809Z,1007.05
2018-04-23T03:40:25.750Z,1007.04
2018-04-23T03:41:25.690Z,1007.07
2018-04-23T03:42:25.632Z,1007.04
2018-04-23T03:43:25.566Z,1007.01
2018-04-23T03:44:25.538Z,1007.06
2018-04-23T03:45:25.441Z,1007.08
2018-04-23T03:46:25.383Z,1007.05
2018-04-23T03:47:25.321Z,1007.05
2018-04-23T03:48:25.258Z,1007.09
2018-04-23T03:49:25.198Z,1007.06
2018-04-23T03:50:25.142Z,1007.10
2018-04-23T03:51:25.082Z,1007.08
2018-04-23T03:52:25.022Z,1007.07
2018-04-23T03:53:24.959Z,1007.07
2018-04-23T03:54:24.903Z,1007.05
2018-04-23T03:55:24.833Z,1007.05
2018-04-23T03:56:24.781Z,1007.11
2018-04-23T03:57:24.708Z,1007.12
2018-04-23T03:58:24.652Z,1007.12
2018-04-23T03:59:24.592Z,1007.17
2018-04-23T04:00:24.537Z,1007.14
2018-04-23T04:01:24.472Z,1007.14
2018-04-23T04:02:24.421Z,1007.18
2018-04-23T04:03:24.369Z,1007.17
2018-04-23T04:04:24.294Z,1007.17
2018-04-23T04:05:24.230Z,1007.20
2018-04-23T04:06:24.169Z,1007.22
2018-04-23T04:07:24.108Z,1007.28
2018-04-23T04:08:24.041Z,1007.28
2018-04-23T04:09:24.008Z,1007.29
2018-04-23T04:10:23.926Z,1007.30
2018-04-23T04:11:23.866Z,1007.30
2018-04-23T04:12:23.808Z,1007.29
2018-04-23T04:13:23.742Z,1007.28
2018-04-23T04:14:23.674Z,1007.34
2018-04-23T04:15:23.627Z,1007.32
2018-04-23T04:16:23.557Z,1007.37
2018-04-23T04:17:23.493Z,1007.35
2018-04-23T04:18:23.440Z,1007.35
2018-04-23T04:19:23.376Z,1007.39
2018-04-23T04:20:23.311Z,1007.40
2018-04-23T04:21:23.274Z,1007.40
2018-04-23T04:22:23.195Z,1007.42
2018-04-23T04:23:23.141Z,1007.43
2018-04-23T04:24:23.082Z,1007.46
2018-04-23T04:25:23.008Z,1007.46
2018-04-23T04:26:22.943Z,1007.43
2018-04-23T04:27:22.893Z,1007.46
2018-04-23T04:28:22.826Z,1007.54
2018-04-23T04:29:22.766Z,1007.55
2018-04-23T04:30:22.707Z,1007.54
2018-04-23T04:31:22.647Z,1007.59
2018-04-23T04:32:22.600Z,1007.58
2018-04-23T04:33:22.522Z,1007.61
2018-04-23T04:34:22.460Z,1007.60
2018-04-23T04:35:22.401Z,1007.60
2018-04-23T04:36:22.342Z,1007.65
2018-04-23T04:37:22.279Z,1007.60
2018-04-23T04:38:22.216Z,1007.61
2018-04-23T04:39:22.159Z,1007.60
2018-04-23T04:40:22.120Z,1007.64
2018-04-23T04:41:22.035Z,1007.63
2018-04-23T04:42:21.974Z,1007.65
2018-04-23T04:43:21.931Z,1007.63
2018-04-23T04:44:21.851Z,1007.65
2018-04-23T04:45:21.791Z,1007.60
2018-04-23T04:46:21.735Z,1007.65
2018-04-23T04:47:21.664Z,1007.64
2018-04-23T04:48:21.608Z,1007.61
2018-04-23T04:49:21.543Z,1007.62
2018-04-23T04:50:21.487Z,1007.57
2018-04-23T04:51:21.439Z,1007.60
2018-04-23T04:52:21.361Z,1007.64
2018-04-23T04:53:21.301Z,1007.63
2018-04-23T04:54:21.245Z,1007.68
2018-04-23T04:55:21.197Z,1007.65
2018-04-23T04:56:21.124Z,1007.69
2018-04-23T04:57:21.066Z,1007.74
2018-04-23T04:58:21.000Z,1007.70
2018-04-23T04:59:20.939Z,1007.73
2018-04-23T05:00:20.876Z,1007.77
2018-04-23T05:01:20.858Z,1007.74
2018-04-23T05:02:20.762Z,1007.76
2018-04-23T05:03:20.696Z,1007.74
2018-04-23T05:04:20.634Z,1007.76
2018-04-23T05:05:20.576Z,1007.78
2018-04-23T05:06:20.511Z,1007.77
2018-04-23T05:07:20.463Z,1007.83
2018-04-23T05:08:20.401Z,1007.83
2018-04-23T05:09:20.333Z,1007.83
2018-04-23T05:10:20.285Z,1007.82
2018-04-23T05:11:20.205Z,1007.90
2018-04-23T05:12:20.152Z,1007.89
2018-04-23T05:13:20.100Z,1007.92
2018-04-23T05:14:20.029Z,1007.90
2018-04-23T05:15:19.970Z,1007.88
2018-04-23T05:16:19.907Z,1007.86
2018-04-23T05:17:19.849Z,1007.87
2018-04-23T05:18:19.797Z,1007.87
2018-04-23T05:19:19.747Z,1007.88
2018-04-23T05:20:19.662Z,1007.91
2018-04-23T05:21:19.615Z,1007.91
2018-04-23T05:22:19.555Z,1007.90
2018-04-23T05:23:19.493Z,1007.88
2018-04-23T05:24:19.428Z,1007.88
2018-04-23T05:25:19.377Z,1007.90
2018-04-23T05:26:19.304Z,1007.89
2018-04-23T05:27:19.244Z,1007.92
2018-04-23T05:28:19.183Z,1007.90
2018-04-23T05:29:19.124Z,1007.89
2018-04-23T05:30:19.088Z,1007.92
2018-04-23T05:31:18.997Z,1007.96
2018-04-23T05:32:18.952Z,1008.01
2018-04-23T05:33:18.887Z,1008.05
2018-04-23T05:34:18.821Z,1008.06
2018-04-23T05:35:18.762Z,1008.05
2018-04-23T05:36:18.713Z,1008.04
2018-04-23T05:37:18.647Z,1008.02
2018-04-23T05:38:18.587Z,1008.04
2018-04-23T05:39:18.521Z,1008.04
2018-04-23T05:40:18.463Z,1008.11
2018-04-23T05:41:18.403Z,1008.10
2018-04-23T05:42:18.339Z,1008.15
2018-04-23T05:43:18.279Z,1008.16
2018-04-23T05:44:18.226Z,1008.13
2018-04-23T05:45:18.179Z,1008.10
2018-04-23T05:46:18.101Z,1008.16
2018-04-23T05:47:18.041Z,1008.13
2018-04-23T05:48:17.984Z,1008.07
2018-04-23T05:49:17.922Z,1008.08
2018-04-23T05:50:17.865Z,1008.13
2018-04-23T05:51:17.821Z,1008.18
2018-04-23T05:52:17.742Z,1008.29
2018-04-23T05:53:17.680Z,1008.35
2018-04-23T05:54:17.626Z,1008.42
2018-04-23T05:55:17.582Z,1008.41
2018-04-23T05:56:25.158Z,1008.46
2018-04-23T05:58:12.412Z,1008.45
2018-04-23T05:59:11.697Z,1008.46
2018-04-23T06:01:05.009Z,1008.43
2018-04-23T06:02:04.922Z,1008.46
2018-04-23T06:03:04.900Z,1008.41
2018-04-23T06:04:04.814Z,1008.39
2018-04-23T06:05:04.740Z,1008.35
2018-04-23T06:06:04.685Z,1008.39
2018-04-23T06:07:04.619Z,1008.31
2018-04-23T06:08:04.562Z,1008.37
2018-04-23T06:09:04.500Z,1008.31
2018-04-23T06:10:04.440Z,1008.29
2018-04-23T06:11:04.379Z,1008.29
2018-04-23T06:12:04.348Z,1008.26
2018-04-23T06:13:04.257Z,1008.25
2018-04-23T06:14:04.199Z,1008.17
2018-04-23T06:15:04.154Z,1008.19
2018-04-23T06:16:04.079Z,1008.17
2018-04-23T06:17:04.022Z,1008.23
2018-04-23T06:18:03.966Z,1008.24
2018-04-23T06:19:03.898Z,1008.25
2018-04-23T06:20:03.842Z,1008.33
2018-04-23T06:21:03.778Z,1008.32
2018-04-23T06:22:03.729Z,1008.38
2018-04-23T06:23:03.657Z,1008.34
2018-04-23T06:24:03.602Z,1008.28
2018-04-23T06:25:03.543Z,1008.31
2018-04-23T06:26:03.474Z,1008.28
2018-04-23T06:27:03.421Z,1008.29
2018-04-23T06:28:03.358Z,1008.28
2018-04-23T06:29:03.297Z,1008.27
2018-04-23T06:30:03.243Z,1008.27
2018-04-23T06:31:03.189Z,1008.24
2018-04-23T06:32:03.117Z,1008.25
2018-04-23T06:33:03.067Z,1008.21
2018-04-23T06:34:03.005Z,1008.18
2018-04-23T06:35:02.937Z,1008.18
2018-04-23T06:36:02.880Z,1008.21
2018-04-23T06:37:02.828Z,1008.20
2018-04-23T06:38:02.785Z,1008.25
2018-04-23T06:39:02.708Z,1008.25
2018-04-23T06:40:02.642Z,1008.30
2018-04-23T06:41:02.596Z,1008.25
2018-04-23T06:42:02.518Z,1008.17
2018-04-23T06:43:02.458Z,1008.08
2018-04-23T06:44:02.399Z,1008.10
2018-04-23T06:45:02.337Z,1008.06
2018-04-23T06:46:02.283Z,1008.05
2018-04-23T06:47:02.228Z,1008.07
2018-04-23T06:48:02.168Z,1008.09
2018-04-23T06:49:02.102Z,1008.15
2018-04-23T06:50:02.043Z,1008.14
2018-04-23T06:51:02.000Z,1008.17
2018-04-23T06:52:01.928Z,1008.05
2018-04-23T06:53:01.861Z,1008.03
2018-04-23T06:54:01.805Z,1007.94
2018-04-23T06:55:01.741Z,1007.93
2018-04-23T06:56:01.687Z,1007.94
2018-04-23T06:57:01.633Z,1007.99
2018-04-23T06:58:01.566Z,1007.95
2018-04-23T06:59:01.552Z,1007.99
2018-04-23T07:00:01.451Z,1007.99
2018-04-23T07:01:01.396Z,1007.94
2018-04-23T07:02:01.335Z,1007.88
2018-04-23T07:03:01.280Z,1007.80
2018-04-23T07:04:01.223Z,1007.81
2018-04-23T07:05:01.226Z,1007.72
2018-04-23T07:06:01.091Z,1007.71
2018-04-23T07:07:01.054Z,1007.65
2018-04-23T07:08:00.979Z,1007.67
2018-04-23T07:09:00.918Z,1007.63
2018-04-23T07:10:00.861Z,1007.60
2018-04-23T07:11:00.798Z,1007.58
2018-04-23T07:12:00.733Z,1007.58
2018-04-23T07:13:00.671Z,1007.61
2018-04-23T07:14:00.619Z,1007.55
2018-04-23T07:15:00.565Z,1007.54
2018-04-23T07:16:00.494Z,1007.56
2018-04-23T07:17:00.442Z,1007.53
2018-04-23T07:18:00.441Z,1007.54
2018-04-23T07:19:00.320Z,1007.63
2018-04-23T07:20:00.263Z,1007.67
2018-04-23T07:21:00.208Z,1007.67
2018-04-23T07:22:00.140Z,1007.64
2018-04-23T07:23:00.083Z,1007.63
2018-04-23T07:24:00.024Z,1007.62
2018-04-23T07:24:59.964Z,1007.69
2018-04-23T07:25:59.905Z,1007.70
2018-04-23T07:26:59.859Z,1007.75
2018-04-23T07:27:59.786Z,1007.83
2018-04-23T07:28:59.730Z,1007.85
2018-04-23T07:29:59.668Z,1007.86
2018-04-23T07:30:59.628Z,1007.96
2018-04-23T07:31:59.551Z,1007.90
2018-04-23T07:32:59.494Z,1007.91
2018-04-23T07:33:59.434Z,1007.92
2018-04-23T07:35:02.103Z,1007.96
2018-04-23T07:35:59.319Z,1008.01
2018-04-23T07:36:59.267Z,1007.99
2018-04-23T07:37:59.199Z,1008.01
2018-04-23T07:38:59.149Z,1007.97
2018-04-23T07:39:59.083Z,1007.90
2018-04-23T07:40:59.025Z,1007.96
2018-04-23T07:41:58.966Z,1008.08
2018-04-23T07:42:58.910Z,1008.14
2018-04-23T07:43:58.846Z,1008.03
2018-04-23T07:44:58.788Z,1007.96
2018-04-23T07:45:58.733Z,1007.94
2018-04-23T07:46:58.679Z,1008.00
2018-04-23T07:47:58.615Z,1008.01
2018-04-23T07:48:58.594Z,1007.98
2018-04-23T07:49:58.497Z,1007.91
2018-04-23T07:50:58.443Z,1007.89
2018-04-23T07:51:58.383Z,1007.94
2018-04-23T07:52:58.324Z,1008.04
2018-04-23T07:53:58.268Z,1008.03
2018-04-23T07:54:58.212Z,1008.01
2018-04-23T07:55:58.149Z,1008.01
2018-04-23T07:56:58.089Z,1008.04
2018-04-23T07:57:58.035Z,1008.14
2018-04-23T07:58:57.978Z,1008.12
2018-04-23T07:59:57.965Z,1008.12
2018-04-23T08:00:57.860Z,1008.24
2018-04-23T08:01:57.810Z,1008.36
2018-04-23T08:02:57.743Z,1008.41
2018-04-23T08:03:57.718Z,1008.39
2018-04-23T08:04:57.628Z,1008.47
2018-04-23T08:05:57.573Z,1008.53
2018-04-23T08:06:57.511Z,1008.58
2018-04-23T08:07:57.453Z,1008.58
2018-04-23T08:08:57.396Z,1008.66
2018-04-23T08:09:57.333Z,1008.67
2018-04-23T08:10:57.280Z,1008.69
2018-04-23T08:11:57.227Z,1008.72
2018-04-23T08:12:57.165Z,1008.73
2018-04-23T08:13:57.105Z,1008.78
2018-04-23T08:14:57.064Z,1008.77
2018-04-23T08:15:56.989Z,1008.75
2018-04-23T08:16:56.933Z,1008.83
2018-04-23T08:17:56.881Z,1008.88
2018-04-23T08:18:56.829Z,1008.94
2018-04-23T08:19:56.760Z,1008.99
2018-04-23T08:20:56.702Z,1008.92
2018-04-23T08:21:56.651Z,1008.90
2018-04-23T08:22:56.591Z,1008.90
2018-04-23T08:23:56.575Z,1008.88
2018-04-23T08:24:56.478Z,1008.87
2018-04-23T08:25:56.436Z,1008.89
2018-04-23T08:26:56.360Z,1008.90
2018-04-23T08:27:56.329Z,1008.98
2018-04-23T08:28:56.253Z,1009.10
2018-04-23T08:29:56.185Z,1009.13
2018-04-23T08:30:56.140Z,1009.16
2018-04-23T08:31:56.103Z,1009.12
2018-04-23T08:32:56.026Z,1009.11
2018-04-23T08:33:55.964Z,1009.06
2018-04-23T08:34:55.905Z,1008.93
2018-04-23T08:35:55.848Z,1008.96
2018-04-23T08:36:55.798Z,1008.97
2018-04-23T08:37:55.741Z,1008.99
2018-04-23T08:38:55.682Z,1008.97
2018-04-23T08:39:55.646Z,1009.03
2018-04-23T08:40:55.566Z,1009.03
2018-04-23T08:41:55.524Z,1009.04
2018-04-23T08:42:55.460Z,1009.12
2018-04-23T08:43:55.403Z,1009.02
2018-04-23T08:44:55.342Z,1009.02
2018-04-23T08:45:55.283Z,1008.98
2018-04-23T08:46:55.227Z,1009.07
2018-04-23T08:47:55.171Z,1008.97
2018-04-23T08:48:55.132Z,1009.11
2018-04-23T08:49:55.056Z,1009.07
2018-04-23T08:50:55.007Z,1009.19
2018-04-23T08:51:54.942Z,1009.15
2018-04-23T08:52:54.892Z,1009.12
2018-04-23T08:53:54.823Z,1009.23
2018-04-23T08:54:54.775Z,1009.31
2018-04-23T08:55:54.765Z,1009.27
2018-04-23T08:56:54.651Z,1009.31
2018-04-23T08:57:54.597Z,1009.28
2018-04-23T08:58:54.550Z,1009.23
2018-04-23T08:59:54.493Z,1009.24
2018-04-23T09:00:54.423Z,1009.41
2018-04-23T09:01:54.362Z,1009.28
2018-04-23T09:02:54.308Z,1009.28
2018-04-23T09:03:54.253Z,1009.28
2018-04-23T09:04:54.196Z,1009.29
2018-04-23T09:05:54.135Z,1009.30
2018-04-23T09:06:54.078Z,1009.24
2018-04-23T09:07:54.040Z,1009.20
2018-04-23T09:09:00.640Z,1009.27
2018-04-23T09:13:27.752Z,1009.24
2018-04-23T09:15:22.073Z,1009.14
2018-04-23T09:16:21.973Z,1009.15
2018-04-23T09:18:16.283Z,1009.23
2018-04-23T09:19:16.182Z,1009.21
2018-04-23T09:21:13.464Z,1009.20
2018-04-23T09:22:13.366Z,1009.26
2018-04-23T09:23:13.336Z,1009.30
2018-04-23T09:24:13.282Z,1009.33
2018-04-23T09:25:13.198Z,1009.35
2018-04-23T09:26:13.146Z,1009.36
2018-04-23T09:27:13.076Z,1009.46
2018-04-23T09:28:13.032Z,1009.45
2018-04-23T09:29:12.990Z,1009.50
2018-04-23T09:30:12.904Z,1009.46
2018-04-23T09:31:12.845Z,1009.45
2018-04-23T09:32:12.788Z,1009.49
2018-04-23T09:33:12.742Z,1009.57
2018-04-23T09:34:12.670Z,1009.55
2018-04-23T09:35:12.606Z,1009.61
2018-04-23T09:36:12.555Z,1009.46
2018-04-23T09:37:12.482Z,1009.58
2018-04-23T09:38:12.461Z,1009.47
2018-04-23T09:39:12.368Z,1009.45
2018-04-23T09:40:12.313Z,1009.42
2018-04-23T09:41:12.272Z,1009.49
2018-04-23T09:42:12.189Z,1009.44
2018-04-23T09:43:12.157Z,1009.47
2018-04-23T09:44:12.088Z,1009.46
2018-04-23T09:45:12.006Z,1009.48
2018-04-23T09:46:11.960Z,1009.49
2018-04-23T09:47:11.912Z,1009.46
2018-04-23T09:48:11.851Z,1009.48
2018-04-23T09:49:11.777Z,1009.53
2018-04-23T09:50:11.791Z,1009.49
2018-04-23T09:51:11.656Z,1009.51
2018-04-23T09:52:11.618Z,1009.49
2018-04-23T09:53:11.536Z,1009.48
2018-04-23T09:54:11.474Z,1009.51
2018-04-23T09:55:11.434Z,1009.57
2018-04-23T09:56:11.352Z,1009.51
2018-04-23T09:57:11.302Z,1009.50
2018-04-23T09:58:11.248Z,1009.54
2018-04-23T09:59:11.183Z,1009.57
2018-04-23T10:00:11.119Z,1009.58
2018-04-23T10:01:11.079Z,1009.59
2018-04-23T10:02:10.999Z,1009.59
2018-04-23T10:03:10.960Z,1009.59
2018-04-23T10:04:10.880Z,1009.60
2018-04-23T10:05:10.827Z,1009.63
2018-04-23T10:06:10.796Z,1009.64
2018-04-23T10:07:10.703Z,1009.58
2018-04-23T10:08:10.643Z,1009.46
2018-04-23T10:09:10.582Z,1009.42
2018-04-23T10:10:10.526Z,1009.39
2018-04-23T10:11:10.465Z,1009.43
2018-04-23T10:12:10.450Z,1009.45
2018-04-23T10:13:10.344Z,1009.42
2018-04-23T10:14:10.288Z,1009.40
2018-04-23T10:15:10.224Z,1009.38
2018-04-23T10:16:10.170Z,1009.37
2018-04-23T10:17:10.127Z,1009.37
2018-04-23T10:18:10.067Z,1009.32
2018-04-23T10:19:10.032Z,1009.38
2018-04-23T10:20:11.575Z,1009.41
2018-04-23T10:21:09.889Z,1009.45
2018-04-23T10:22:09.824Z,1009.42
2018-04-23T10:23:09.809Z,1009.46
2018-04-23T10:24:09.727Z,1009.35
2018-04-23T10:25:09.641Z,1009.38
2018-04-23T10:26:09.597Z,1009.37
2018-04-23T10:27:09.520Z,1009.42
2018-04-23T10:28:09.471Z,1009.47
2018-04-23T10:29:09.415Z,1009.57
2018-04-23T10:30:09.346Z,1009.57
2018-04-23T10:31:09.408Z,1009.55
2018-04-23T10:32:11.080Z,1009.59
2018-04-23T10:33:09.179Z,1009.55
2018-04-23T10:34:09.119Z,1009.54
2018-04-23T10:35:09.079Z,1009.56
2018-04-23T10:36:08.994Z,1009.48
2018-04-23T10:37:08.960Z,1009.48
2018-04-23T10:38:08.894Z,1009.38
2018-04-23T10:39:08.822Z,1009.30
2018-04-23T10:40:08.805Z,1009.27
2018-04-23T10:41:08.703Z,1009.29
2018-04-23T10:42:08.650Z,1009.25
2018-04-23T10:43:08.608Z,1009.33
2018-04-23T10:44:08.532Z,1009.35
2018-04-23T10:45:08.476Z,1009.29
2018-04-23T10:46:08.415Z,1009.36
2018-04-23T10:47:08.355Z,1009.37
2018-04-23T10:48:08.298Z,1009.49
2018-04-23T10:49:08.257Z,1009.50
2018-04-23T10:50:08.183Z,1009.41
2018-04-23T10:51:08.238Z,1009.42
2018-04-23T10:52:08.087Z,1009.29
2018-04-23T10:53:08.022Z,1009.18
2018-04-23T10:54:07.951Z,1009.16
2018-04-23T10:55:07.895Z,1009.19
2018-04-23T10:56:07.841Z,1009.14
2018-04-23T10:57:07.808Z,1009.19
2018-04-23T10:58:07.769Z,1009.11
2018-04-23T10:59:07.674Z,1009.11
2018-04-23T11:00:07.611Z,1009.08
2018-04-23T11:01:07.552Z,1009.08
2018-04-23T11:02:07.512Z,1009.03
2018-04-23T11:03:07.438Z,1009.05
2018-04-23T11:04:07.408Z,1008.98
2018-04-23T11:05:07.335Z,1009.05
2018-04-23T11:06:07.262Z,1009.13
2018-04-23T11:07:07.204Z,1009.13
2018-04-23T11:08:07.146Z,1009.27
2018-04-23T11:09:07.091Z,1009.33
2018-04-23T11:10:07.060Z,1009.40
2018-04-23T11:11:06.985Z,1009.45
2018-04-23T11:12:06.922Z,1009.37
2018-04-23T11:13:06.875Z,1009.43
2018-04-23T11:14:06.814Z,1009.41
2018-04-23T11:15:06.770Z,1009.27
2018-04-23T11:16:06.742Z,1009.29
2018-04-23T11:17:06.645Z,1009.29
2018-04-23T11:18:06.605Z,1009.60
2018-04-23T11:19:06.548Z,1010.03
2018-04-23T11:20:06.493Z,1010.02
2018-04-23T11:21:06.426Z,1010.18
2018-04-23T11:22:06.378Z,1010.18
2018-04-23T11:23:06.319Z,1010.19
2018-04-23T11:24:06.268Z,1010.12
2018-04-23T11:25:06.223Z,1010.23
2018-04-23T11:26:06.163Z,1010.08
2018-04-23T11:27:06.105Z,1010.14
2018-04-23T11:28:06.072Z,1010.12
2018-04-23T11:29:06.002Z,1010.13
2018-04-23T11:30:05.969Z,1010.19
2018-04-23T11:31:05.895Z,1010.19
2018-04-23T11:32:05.861Z,1010.17
2018-04-23T11:33:05.805Z,1010.22
2018-04-23T11:34:05.744Z,1010.10
2018-04-23T11:35:05.704Z,1010.20
2018-04-23T11:36:05.632Z,1010.19
2018-04-23T11:37:05.627Z,1010.25
2018-04-23T11:38:05.533Z,1010.25
2018-04-23T11:39:05.505Z,1010.02
2018-04-23T11:40:05.432Z,1010.13
2018-04-23T11:41:05.380Z,1010.20
2018-04-23T11:42:05.345Z,1010.27
2018-04-23T11:43:05.275Z,1010.36
2018-04-23T11:44:07.109Z,1010.55
2018-04-23T11:45:05.199Z,1010.54
2018-04-23T11:46:05.129Z,1010.49
2018-04-23T11:47:05.078Z,1010.51
2018-04-23T11:48:05.022Z,1010.49
2018-04-23T11:49:04.974Z,1010.42
2018-04-23T11:50:04.945Z,1010.54
2018-04-23T11:51:04.876Z,1010.57
2018-04-23T11:52:04.833Z,1010.55
2018-04-23T11:53:04.842Z,1010.47
2018-04-23T11:54:04.730Z,1010.28
2018-04-23T11:55:04.677Z,1010.24
2018-04-23T11:56:04.636Z,1010.38
2018-04-23T11:57:04.583Z,1010.42
2018-04-23T11:58:04.535Z,1010.14
2018-04-23T11:59:04.489Z,1010.22
2018-04-23T12:00:04.459Z,1010.35
2018-04-23T12:01:04.398Z,1010.58
2018-04-23T12:02:04.358Z,1010.54
2018-04-23T12:03:04.338Z,1010.54
2018-04-23T12:04:04.270Z,1010.54
2018-04-23T12:05:04.210Z,1010.47
2018-04-23T12:06:04.148Z,1010.55
2018-04-23T12:07:04.110Z,1010.64
2018-04-23T12:08:04.057Z,1010.77
2018-04-23T12:09:04.009Z,1010.80
2018-04-23T12:10:03.967Z,1010.82
2018-04-23T12:11:03.917Z,1010.73
2018-04-23T12:12:03.869Z,1010.62
2018-04-23T12:13:03.822Z,1010.01